Point Thomson Airstrip Information

FAA: 37AA - ICAO: PAAD

Point Thomson Airstrip (Airport) Location

State Alaska
County North Slope
City Deadhorse
Point Thomson Airstrip (Airport) is 44 miles east of Deadhorse, AK.
Latitude 70-08-09.6000N
Longitude 146-17-24.1000W
Elevation 56ft

Point Thomson Airstrip METARs

METAR PAAD 262355Z AUTO 24022KT 2SM HZ CLR M27/M30 A3050 RMK AO2 T12681296 11248 21268
Altimeter 30.50"
Temperature -26.8°C (-16.2°F)
Wind 240° at 22KT
Clouds Skies are clear.
Visibility 2.0mi
Time observed: 2022-01-26T23:55:00Z

Point Thomson Airstrip (Airport) Details

Status Operational
Activation September 2011
Ownership Private
Usage Private
Chart POINT BARROW
ATC on-site No
Beacon schedule N/A
Beacon color N/A

Point Thomson Airstrip (Airport) Contacts

Owner EXXON MOBIL
Owner address 3700 CENTERPOINT DRIVE, STE. 600, ANCHORAGE, AK 99503
Owner phone 907-561-5331
Manager SCOTT RANDBY
Manager address 2301 PEGER ROAD, FAIRBANKS, AK 99709-6394
Manager phone (907) 451-5280

Point Thomson Airstrip Radio Frequencies

Point Thomson Airstrip (Airport) Radio Frequencies

UNICOM N/A
Common traffic advisory frequency (CTAF) 122.9